sensor_id;sensor_type;location;lat;lon;timestamp;P1;durP1;ratioP1;P2;durP2;ratioP2
77571;SDS011;67214;47.454;18.966;2023-02-22T00:01:37;3.17;;;2.42;;
77571;SDS011;67214;47.454;18.966;2023-02-22T00:04:06;5.67;;;3.33;;
77571;SDS011;67214;47.454;18.966;2023-02-22T00:06:35;4.03;;;3.10;;
77571;SDS011;67214;47.454;18.966;2023-02-22T00:09:03;5.72;;;3.42;;
77571;SDS011;67214;47.454;18.966;2023-02-22T00:11:32;6.95;;;3.30;;
77571;SDS011;67214;47.454;18.966;2023-02-22T00:14:00;5.90;;;3.35;;
77571;SDS011;67214;47.454;18.966;2023-02-22T00:16:27;4.62;;;3.40;;
77571;SDS011;67214;47.454;18.966;2023-02-22T00:18:56;5.47;;;3.40;;
77571;SDS011;67214;47.454;18.966;2023-02-22T00:21:23;4.80;;;3.15;;
77571;SDS011;67214;47.454;18.966;2023-02-22T00:23:51;6.30;;;3.52;;
77571;SDS011;67214;47.454;18.966;2023-02-22T00:26:20;5.55;;;4.00;;
77571;SDS011;67214;47.454;18.966;2023-02-22T00:28:50;6.37;;;3.83;;
77571;SDS011;67214;47.454;18.966;2023-02-22T00:31:18;5.92;;;3.85;;
77571;SDS011;67214;47.454;18.966;2023-02-22T00:33:46;6.97;;;3.92;;
77571;SDS011;67214;47.454;18.966;2023-02-22T00:36:14;10.43;;;5.65;;
77571;SDS011;67214;47.454;18.966;2023-02-22T00:38:41;8.43;;;4.62;;
77571;SDS011;67214;47.454;18.966;2023-02-22T00:41:09;7.78;;;4.78;;
77571;SDS011;67214;47.454;18.966;2023-02-22T00:43:37;5.97;;;4.33;;
77571;SDS011;67214;47.454;18.966;2023-02-22T00:46:05;5.87;;;4.10;;
77571;SDS011;67214;47.454;18.966;2023-02-22T00:48:33;7.95;;;4.60;;
77571;SDS011;67214;47.454;18.966;2023-02-22T00:51:00;6.30;;;4.45;;
77571;SDS011;67214;47.454;18.966;2023-02-22T00:53:28;7.55;;;4.55;;
77571;SDS011;67214;47.454;18.966;2023-02-22T00:55:55;7.28;;;4.67;;
77571;SDS011;67214;47.454;18.966;2023-02-22T00:58:23;7.35;;;5.03;;
77571;SDS011;67214;47.454;18.966;2023-02-22T01:00:51;7.58;;;5.17;;
77571;SDS011;67214;47.454;18.966;2023-02-22T01:03:19;7.30;;;4.83;;
77571;SDS011;67214;47.454;18.966;2023-02-22T01:05:47;7.97;;;4.90;;
77571;SDS011;67214;47.454;18.966;2023-02-22T01:08:15;6.97;;;4.70;;
77571;SDS011;67214;47.454;18.966;2023-02-22T01:10:43;9.93;;;5.72;;
77571;SDS011;67214;47.454;18.966;2023-02-22T01:13:11;12.07;;;5.08;;
77571;SDS011;67214;47.454;18.966;2023-02-22T01:15:40;9.43;;;5.20;;
77571;SDS011;67214;47.454;18.966;2023-02-22T01:18:09;7.25;;;5.10;;
77571;SDS011;67214;47.454;18.966;2023-02-22T01:20:37;7.58;;;5.62;;
77571;SDS011;67214;47.454;18.966;2023-02-22T01:23:05;8.33;;;5.53;;
77571;SDS011;67214;47.454;18.966;2023-02-22T01:25:34;9.08;;;5.62;;
77571;SDS011;67214;47.454;18.966;2023-02-22T01:28:03;7.62;;;5.00;;
77571;SDS011;67214;47.454;18.966;2023-02-22T01:30:33;9.63;;;6.00;;
77571;SDS011;67214;47.454;18.966;2023-02-22T01:33:02;6.80;;;5.35;;
77571;SDS011;67214;47.454;18.966;2023-02-22T01:35:33;7.22;;;6.03;;
77571;SDS011;67214;47.454;18.966;2023-02-22T01:38:04;6.62;;;5.28;;
77571;SDS011;67214;47.454;18.966;2023-02-22T01:40:39;8.03;;;6.05;;
77571;SDS011;67214;47.454;18.966;2023-02-22T01:43:16;6.80;;;5.05;;
77571;SDS011;67214;47.454;18.966;2023-02-22T01:45:54;7.25;;;5.33;;
77571;SDS011;67214;47.454;18.966;2023-02-22T01:51:11;8.05;;;5.83;;
77571;SDS011;67214;47.454;18.966;2023-02-22T01:53:43;11.57;;;5.35;;
77571;SDS011;67214;47.454;18.966;2023-02-22T01:56:14;10.30;;;6.20;;
77571;SDS011;67214;47.454;18.966;2023-02-22T01:58:44;9.88;;;5.90;;
77571;SDS011;67214;47.454;18.966;2023-02-22T02:01:14;9.53;;;5.42;;
77571;SDS011;67214;47.454;18.966;2023-02-22T02:03:43;8.13;;;5.53;;
77571;SDS011;67214;47.454;18.966;2023-02-22T02:06:13;7.97;;;5.72;;
77571;SDS011;67214;47.454;18.966;2023-02-22T02:08:44;7.85;;;5.70;;
77571;SDS011;67214;47.454;18.966;2023-02-22T02:11:15;9.50;;;6.20;;
77571;SDS011;67214;47.454;18.966;2023-02-22T02:13:49;7.92;;;5.80;;
77571;SDS011;67214;47.454;18.966;2023-02-22T02:16:20;7.00;;;5.65;;
77571;SDS011;67214;47.454;18.966;2023-02-22T02:18:52;9.05;;;6.00;;
77571;SDS011;67214;47.454;18.966;2023-02-22T02:32:51;10.18;;;6.60;;
77571;SDS011;67214;47.454;18.966;2023-02-22T02:35:33;9.73;;;6.97;;
77571;SDS011;67214;47.454;18.966;2023-02-22T02:38:12;9.48;;;6.30;;
77571;SDS011;67214;47.454;18.966;2023-02-22T02:40:55;10.55;;;7.12;;
77571;SDS011;67214;47.454;18.966;2023-02-22T02:43:34;10.50;;;7.22;;
77571;SDS011;67214;47.454;18.966;2023-02-22T02:46:18;9.63;;;6.65;;
77571;SDS011;67214;47.454;18.966;2023-02-22T02:48:55;11.38;;;7.78;;
77571;SDS011;67214;47.454;18.966;2023-02-22T02:51:26;12.70;;;6.72;;
77571;SDS011;67214;47.454;18.966;2023-02-22T02:53:54;8.95;;;6.55;;
77571;SDS011;67214;47.454;18.966;2023-02-22T02:56:23;8.05;;;6.75;;
77571;SDS011;67214;47.454;18.966;2023-02-22T02:58:51;9.18;;;6.53;;
77571;SDS011;67214;47.454;18.966;2023-02-22T03:06:58;8.88;;;6.95;;
77571;SDS011;67214;47.454;18.966;2023-02-22T03:12:13;7.67;;;6.33;;
77571;SDS011;67214;47.454;18.966;2023-02-22T03:15:07;10.88;;;7.08;;
77571;SDS011;67214;47.454;18.966;2023-02-22T03:22:52;9.75;;;6.03;;
77571;SDS011;67214;47.454;18.966;2023-02-22T03:25:26;8.00;;;5.80;;
77571;SDS011;67214;47.454;18.966;2023-02-22T03:27:54;10.13;;;6.40;;
77571;SDS011;67214;47.454;18.966;2023-02-22T03:30:26;10.20;;;6.50;;
77571;SDS011;67214;47.454;18.966;2023-02-22T03:33:08;11.05;;;6.00;;
77571;SDS011;67214;47.454;18.966;2023-02-22T03:35:36;7.80;;;5.95;;
77571;SDS011;67214;47.454;18.966;2023-02-22T03:38:05;9.55;;;5.70;;
77571;SDS011;67214;47.454;18.966;2023-02-22T03:40:37;7.10;;;5.92;;
77571;SDS011;67214;47.454;18.966;2023-02-22T03:43:09;8.55;;;6.20;;
77571;SDS011;67214;47.454;18.966;2023-02-22T03:45:44;9.30;;;6.37;;
77571;SDS011;67214;47.454;18.966;2023-02-22T03:48:13;7.15;;;5.70;;
77571;SDS011;67214;47.454;18.966;2023-02-22T03:50:42;10.32;;;6.10;;
77571;SDS011;67214;47.454;18.966;2023-02-22T03:53:10;8.98;;;6.37;;
77571;SDS011;67214;47.454;18.966;2023-02-22T03:55:38;7.80;;;6.50;;
77571;SDS011;67214;47.454;18.966;2023-02-22T03:58:07;10.28;;;6.00;;
77571;SDS011;67214;47.454;18.966;2023-02-22T04:00:36;8.78;;;6.10;;
77571;SDS011;67214;47.454;18.966;2023-02-22T04:03:03;9.35;;;6.92;;
77571;SDS011;67214;47.454;18.966;2023-02-22T04:05:31;8.98;;;6.10;;
77571;SDS011;67214;47.454;18.966;2023-02-22T04:07:58;9.18;;;6.40;;
77571;SDS011;67214;47.454;18.966;2023-02-22T04:10:26;8.58;;;6.80;;
77571;SDS011;67214;47.454;18.966;2023-02-22T04:12:53;11.60;;;7.80;;
77571;SDS011;67214;47.454;18.966;2023-02-22T04:15:22;10.38;;;7.00;;
77571;SDS011;67214;47.454;18.966;2023-02-22T04:17:50;12.35;;;8.23;;
77571;SDS011;67214;47.454;18.966;2023-02-22T04:20:17;13.18;;;8.18;;
77571;SDS011;67214;47.454;18.966;2023-02-22T04:22:45;9.60;;;7.33;;
77571;SDS011;67214;47.454;18.966;2023-02-22T04:25:12;11.22;;;7.35;;
77571;SDS011;67214;47.454;18.966;2023-02-22T04:27:40;9.43;;;7.42;;
77571;SDS011;67214;47.454;18.966;2023-02-22T04:30:08;9.53;;;6.72;;
77571;SDS011;67214;47.454;18.966;2023-02-22T04:32:37;10.00;;;7.35;;
77571;SDS011;67214;47.454;18.966;2023-02-22T04:35:05;9.25;;;7.25;;
77571;SDS011;67214;47.454;18.966;2023-02-22T04:37:33;12.43;;;7.83;;
77571;SDS011;67214;47.454;18.966;2023-02-22T04:40:02;10.80;;;8.93;;
77571;SDS011;67214;47.454;18.966;2023-02-22T04:42:34;13.80;;;9.08;;
77571;SDS011;67214;47.454;18.966;2023-02-22T04:45:03;12.05;;;9.35;;
77571;SDS011;67214;47.454;18.966;2023-02-22T04:47:32;11.57;;;8.08;;
77571;SDS011;67214;47.454;18.966;2023-02-22T04:50:03;11.25;;;8.13;;
77571;SDS011;67214;47.454;18.966;2023-02-22T04:52:32;11.12;;;7.83;;
77571;SDS011;67214;47.454;18.966;2023-02-22T04:54:59;12.90;;;9.20;;
77571;SDS011;67214;47.454;18.966;2023-02-22T04:57:29;21.25;;;12.88;;
77571;SDS011;67214;47.454;18.966;2023-02-22T04:59:56;13.40;;;9.70;;
77571;SDS011;67214;47.454;18.966;2023-02-22T05:02:24;16.17;;;9.33;;
77571;SDS011;67214;47.454;18.966;2023-02-22T05:04:52;13.35;;;8.78;;
77571;SDS011;67214;47.454;18.966;2023-02-22T05:07:20;12.75;;;8.28;;
77571;SDS011;67214;47.454;18.966;2023-02-22T05:09:48;38.13;;;18.60;;
77571;SDS011;67214;47.454;18.966;2023-02-22T05:12:16;35.28;;;18.15;;
77571;SDS011;67214;47.454;18.966;2023-02-22T05:14:43;26.77;;;14.25;;
77571;SDS011;67214;47.454;18.966;2023-02-22T05:17:11;19.35;;;12.20;;
77571;SDS011;67214;47.454;18.966;2023-02-22T05:19:39;20.90;;;11.68;;
77571;SDS011;67214;47.454;18.966;2023-02-22T05:22:06;13.75;;;9.80;;
77571;SDS011;67214;47.454;18.966;2023-02-22T05:24:34;11.63;;;8.35;;
77571;SDS011;67214;47.454;18.966;2023-02-22T05:27:01;12.53;;;8.10;;
77571;SDS011;67214;47.454;18.966;2023-02-22T05:29:29;12.05;;;8.03;;
77571;SDS011;67214;47.454;18.966;2023-02-22T05:31:56;10.10;;;7.65;;
77571;SDS011;67214;47.454;18.966;2023-02-22T05:34:24;9.85;;;7.25;;
77571;SDS011;67214;47.454;18.966;2023-02-22T05:36:51;10.63;;;6.72;;
77571;SDS011;67214;47.454;18.966;2023-02-22T05:39:19;11.22;;;7.70;;
77571;SDS011;67214;47.454;18.966;2023-02-22T05:41:46;12.90;;;8.08;;
77571;SDS011;67214;47.454;18.966;2023-02-22T05:44:14;12.75;;;7.28;;
77571;SDS011;67214;47.454;18.966;2023-02-22T05:46:41;10.60;;;7.53;;
77571;SDS011;67214;47.454;18.966;2023-02-22T05:49:09;9.28;;;7.08;;
77571;SDS011;67214;47.454;18.966;2023-02-22T05:51:36;11.60;;;7.40;;
77571;SDS011;67214;47.454;18.966;2023-02-22T05:54:04;8.48;;;5.83;;
77571;SDS011;67214;47.454;18.966;2023-02-22T05:56:31;18.45;;;7.83;;
77571;SDS011;67214;47.454;18.966;2023-02-22T05:58:59;8.90;;;6.58;;
77571;SDS011;67214;47.454;18.966;2023-02-22T06:01:26;11.05;;;7.10;;
77571;SDS011;67214;47.454;18.966;2023-02-22T06:03:54;9.38;;;7.05;;
77571;SDS011;67214;47.454;18.966;2023-02-22T06:06:21;12.40;;;7.03;;
77571;SDS011;67214;47.454;18.966;2023-02-22T06:08:49;10.95;;;6.28;;
77571;SDS011;67214;47.454;18.966;2023-02-22T06:11:16;9.38;;;6.78;;
77571;SDS011;67214;47.454;18.966;2023-02-22T06:13:48;8.73;;;6.00;;
77571;SDS011;67214;47.454;18.966;2023-02-22T06:16:17;9.08;;;6.53;;
77571;SDS011;67214;47.454;18.966;2023-02-22T06:18:46;12.47;;;6.67;;
77571;SDS011;67214;47.454;18.966;2023-02-22T06:21:13;8.48;;;6.70;;
77571;SDS011;67214;47.454;18.966;2023-02-22T06:23:41;9.33;;;6.80;;
77571;SDS011;67214;47.454;18.966;2023-02-22T06:26:09;10.78;;;7.03;;
77571;SDS011;67214;47.454;18.966;2023-02-22T06:28:36;8.25;;;6.40;;
77571;SDS011;67214;47.454;18.966;2023-02-22T06:31:04;8.70;;;5.97;;
77571;SDS011;67214;47.454;18.966;2023-02-22T06:33:31;7.08;;;5.92;;
77571;SDS011;67214;47.454;18.966;2023-02-22T06:35:59;9.90;;;6.67;;
77571;SDS011;67214;47.454;18.966;2023-02-22T06:38:26;10.80;;;6.62;;
77571;SDS011;67214;47.454;18.966;2023-02-22T06:40:53;7.80;;;5.80;;
77571;SDS011;67214;47.454;18.966;2023-02-22T06:43:21;7.37;;;6.12;;
77571;SDS011;67214;47.454;18.966;2023-02-22T06:45:50;14.38;;;9.25;;
77571;SDS011;67214;47.454;18.966;2023-02-22T06:48:18;13.40;;;8.38;;
77571;SDS011;67214;47.454;18.966;2023-02-22T06:50:45;12.18;;;8.00;;
77571;SDS011;67214;47.454;18.966;2023-02-22T06:53:13;12.15;;;8.23;;
77571;SDS011;67214;47.454;18.966;2023-02-22T06:55:40;12.05;;;7.65;;
77571;SDS011;67214;47.454;18.966;2023-02-22T06:58:08;11.05;;;8.20;;
77571;SDS011;67214;47.454;18.966;2023-02-22T07:00:35;13.35;;;8.75;;
77571;SDS011;67214;47.454;18.966;2023-02-22T07:03:03;14.07;;;8.55;;
77571;SDS011;67214;47.454;18.966;2023-02-22T07:05:30;14.93;;;9.10;;
77571;SDS011;67214;47.454;18.966;2023-02-22T07:08:05;11.68;;;8.45;;
77571;SDS011;67214;47.454;18.966;2023-02-22T07:10:33;13.48;;;9.33;;
77571;SDS011;67214;47.454;18.966;2023-02-22T07:13:03;11.10;;;8.80;;
77571;SDS011;67214;47.454;18.966;2023-02-22T07:15:32;16.10;;;10.13;;
77571;SDS011;67214;47.454;18.966;2023-02-22T07:18:00;13.13;;;8.55;;
77571;SDS011;67214;47.454;18.966;2023-02-22T07:20:29;12.95;;;9.35;;
77571;SDS011;67214;47.454;18.966;2023-02-22T07:22:57;15.38;;;9.78;;
77571;SDS011;67214;47.454;18.966;2023-02-22T07:25:25;13.10;;;9.33;;
77571;SDS011;67214;47.454;18.966;2023-02-22T07:27:53;13.65;;;8.95;;
77571;SDS011;67214;47.454;18.966;2023-02-22T07:30:21;12.95;;;8.53;;
77571;SDS011;67214;47.454;18.966;2023-02-22T07:32:51;11.75;;;7.17;;
77571;SDS011;67214;47.454;18.966;2023-02-22T07:35:24;13.93;;;8.73;;
77571;SDS011;67214;47.454;18.966;2023-02-22T07:37:56;12.70;;;7.40;;
77571;SDS011;67214;47.454;18.966;2023-02-22T07:40:25;10.98;;;7.50;;
77571;SDS011;67214;47.454;18.966;2023-02-22T07:42:54;10.75;;;7.72;;
77571;SDS011;67214;47.454;18.966;2023-02-22T07:45:25;10.25;;;6.53;;
77571;SDS011;67214;47.454;18.966;2023-02-22T07:47:54;9.23;;;6.62;;
77571;SDS011;67214;47.454;18.966;2023-02-22T07:50:23;10.15;;;6.78;;
77571;SDS011;67214;47.454;18.966;2023-02-22T07:52:53;10.30;;;6.67;;
77571;SDS011;67214;47.454;18.966;2023-02-22T07:55:23;9.98;;;5.97;;
77571;SDS011;67214;47.454;18.966;2023-02-22T07:57:52;10.45;;;6.10;;
77571;SDS011;67214;47.454;18.966;2023-02-22T08:00:29;7.50;;;6.00;;
77571;SDS011;67214;47.454;18.966;2023-02-22T08:02:59;9.70;;;6.45;;
77571;SDS011;67214;47.454;18.966;2023-02-22T08:05:28;7.75;;;6.08;;
77571;SDS011;67214;47.454;18.966;2023-02-22T08:07:57;8.88;;;6.83;;
77571;SDS011;67214;47.454;18.966;2023-02-22T08:10:24;11.40;;;6.60;;
77571;SDS011;67214;47.454;18.966;2023-02-22T08:12:52;7.40;;;5.92;;
77571;SDS011;67214;47.454;18.966;2023-02-22T08:15:22;10.40;;;6.87;;
77571;SDS011;67214;47.454;18.966;2023-02-22T08:17:52;7.42;;;5.67;;
77571;SDS011;67214;47.454;18.966;2023-02-22T08:20:20;7.87;;;6.47;;
77571;SDS011;67214;47.454;18.966;2023-02-22T08:22:49;7.75;;;5.50;;
77571;SDS011;67214;47.454;18.966;2023-02-22T08:25:17;9.53;;;6.03;;
77571;SDS011;67214;47.454;18.966;2023-02-22T08:27:46;6.17;;;5.22;;
77571;SDS011;67214;47.454;18.966;2023-02-22T08:30:19;10.00;;;8.08;;
77571;SDS011;67214;47.454;18.966;2023-02-22T08:32:49;8.85;;;7.55;;
77571;SDS011;67214;47.454;18.966;2023-02-22T08:35:15;8.20;;;5.78;;
77571;SDS011;67214;47.454;18.966;2023-02-22T08:37:45;6.95;;;5.25;;
77571;SDS011;67214;47.454;18.966;2023-02-22T08:40:15;7.50;;;5.47;;
77571;SDS011;67214;47.454;18.966;2023-02-22T08:42:44;6.97;;;5.65;;
77571;SDS011;67214;47.454;18.966;2023-02-22T08:45:12;8.45;;;5.90;;
77571;SDS011;67214;47.454;18.966;2023-02-22T08:47:40;8.03;;;5.20;;
77571;SDS011;67214;47.454;18.966;2023-02-22T08:50:08;6.33;;;4.92;;
77571;SDS011;67214;47.454;18.966;2023-02-22T08:52:37;7.55;;;5.45;;
77571;SDS011;67214;47.454;18.966;2023-02-22T08:55:04;7.10;;;5.10;;
77571;SDS011;67214;47.454;18.966;2023-02-22T08:57:32;7.25;;;5.45;;
77571;SDS011;67214;47.454;18.966;2023-02-22T08:59:59;8.68;;;6.65;;
77571;SDS011;67214;47.454;18.966;2023-02-22T09:02:27;10.03;;;6.95;;
77571;SDS011;67214;47.454;18.966;2023-02-22T09:04:55;9.65;;;7.12;;
77571;SDS011;67214;47.454;18.966;2023-02-22T09:07:22;9.08;;;7.45;;
77571;SDS011;67214;47.454;18.966;2023-02-22T09:09:49;11.95;;;7.20;;
77571;SDS011;67214;47.454;18.966;2023-02-22T09:12:17;10.15;;;7.12;;
77571;SDS011;67214;47.454;18.966;2023-02-22T09:14:44;10.40;;;7.25;;
77571;SDS011;67214;47.454;18.966;2023-02-22T09:17:13;12.37;;;7.53;;
77571;SDS011;67214;47.454;18.966;2023-02-22T09:19:40;9.88;;;6.85;;
77571;SDS011;67214;47.454;18.966;2023-02-22T09:22:10;8.85;;;6.87;;
77571;SDS011;67214;47.454;18.966;2023-02-22T09:24:37;10.43;;;7.10;;
77571;SDS011;67214;47.454;18.966;2023-02-22T09:27:06;9.80;;;7.30;;
77571;SDS011;67214;47.454;18.966;2023-02-22T09:29:36;9.18;;;6.42;;
77571;SDS011;67214;47.454;18.966;2023-02-22T09:32:04;10.85;;;5.70;;
77571;SDS011;67214;47.454;18.966;2023-02-22T09:34:31;9.50;;;6.15;;
77571;SDS011;67214;47.454;18.966;2023-02-22T09:36:59;7.53;;;6.05;;
77571;SDS011;67214;47.454;18.966;2023-02-22T09:39:29;8.63;;;6.05;;
77571;SDS011;67214;47.454;18.966;2023-02-22T09:42:02;8.05;;;5.70;;
77571;SDS011;67214;47.454;18.966;2023-02-22T09:47:13;12.88;;;7.55;;
77571;SDS011;67214;47.454;18.966;2023-02-22T09:49:44;13.62;;;9.08;;
77571;SDS011;67214;47.454;18.966;2023-02-22T09:55:06;15.75;;;10.43;;
77571;SDS011;67214;47.454;18.966;2023-02-22T09:57:38;13.95;;;10.18;;
77571;SDS011;67214;47.454;18.966;2023-02-22T10:02:48;16.80;;;10.93;;
77571;SDS011;67214;47.454;18.966;2023-02-22T10:05:35;13.78;;;10.98;;
77571;SDS011;67214;47.454;18.966;2023-02-22T10:08:10;13.60;;;10.50;;
77571;SDS011;67214;47.454;18.966;2023-02-22T10:10:44;14.68;;;10.28;;
77571;SDS011;67214;47.454;18.966;2023-02-22T10:13:14;17.27;;;11.30;;
77571;SDS011;67214;47.454;18.966;2023-02-22T10:27:36;16.55;;;12.80;;
77571;SDS011;67214;47.454;18.966;2023-02-22T10:30:20;18.90;;;13.05;;
77571;SDS011;67214;47.454;18.966;2023-02-22T10:32:53;17.48;;;13.05;;
77571;SDS011;67214;47.454;18.966;2023-02-22T10:35:28;20.30;;;14.23;;
77571;SDS011;67214;47.454;18.966;2023-02-22T10:37:59;17.95;;;13.08;;
77571;SDS011;67214;47.454;18.966;2023-02-22T10:40:33;28.87;;;14.98;;
77571;SDS011;67214;47.454;18.966;2023-02-22T10:43:02;15.93;;;12.82;;
77571;SDS011;67214;47.454;18.966;2023-02-22T10:45:32;22.42;;;14.35;;
77571;SDS011;67214;47.454;18.966;2023-02-22T10:48:05;20.30;;;13.45;;
77571;SDS011;67214;47.454;18.966;2023-02-22T10:50:37;17.48;;;13.90;;
77571;SDS011;67214;47.454;18.966;2023-02-22T10:53:07;18.42;;;13.95;;
77571;SDS011;67214;47.454;18.966;2023-02-22T10:56:03;19.75;;;13.25;;
77571;SDS011;67214;47.454;18.966;2023-02-22T10:58:06;17.40;;;12.78;;
77571;SDS011;67214;47.454;18.966;2023-02-22T11:00:36;21.93;;;13.08;;
77571;SDS011;67214;47.454;18.966;2023-02-22T11:03:16;18.70;;;13.93;;
77571;SDS011;67214;47.454;18.966;2023-02-22T11:05:48;23.87;;;14.20;;
77571;SDS011;67214;47.454;18.966;2023-02-22T11:10:51;15.48;;;12.80;;
77571;SDS011;67214;47.454;18.966;2023-02-22T11:13:31;23.40;;;13.78;;
77571;SDS011;67214;47.454;18.966;2023-02-22T11:16:01;17.50;;;13.48;;
77571;SDS011;67214;47.454;18.966;2023-02-22T11:21:13;17.05;;;13.08;;
77571;SDS011;67214;47.454;18.966;2023-02-22T11:23:43;21.20;;;13.35;;
77571;SDS011;67214;47.454;18.966;2023-02-22T11:26:12;17.80;;;13.55;;
77571;SDS011;67214;47.454;18.966;2023-02-22T11:28:45;18.48;;;13.28;;
77571;SDS011;67214;47.454;18.966;2023-02-22T11:31:18;18.02;;;12.13;;
77571;SDS011;67214;47.454;18.966;2023-02-22T11:33:49;18.00;;;13.45;;
77571;SDS011;67214;47.454;18.966;2023-02-22T11:36:32;16.93;;;12.73;;
77571;SDS011;67214;47.454;18.966;2023-02-22T11:39:10;16.67;;;12.47;;
77571;SDS011;67214;47.454;18.966;2023-02-22T11:41:47;20.77;;;13.13;;
77571;SDS011;67214;47.454;18.966;2023-02-22T11:46:55;17.60;;;12.55;;
77571;SDS011;67214;47.454;18.966;2023-02-22T11:49:33;16.32;;;12.70;;
77571;SDS011;67214;47.454;18.966;2023-02-22T11:52:17;19.20;;;13.30;;
77571;SDS011;67214;47.454;18.966;2023-02-22T11:54:57;17.42;;;12.63;;
77571;SDS011;67214;47.454;18.966;2023-02-22T11:57:28;18.75;;;12.73;;
77571;SDS011;67214;47.454;18.966;2023-02-22T12:08:29;19.55;;;14.00;;
77571;SDS011;67214;47.454;18.966;2023-02-22T12:22:52;16.07;;;11.50;;
77571;SDS011;67214;47.454;18.966;2023-02-22T12:24:59;15.03;;;11.83;;
77571;SDS011;67214;47.454;18.966;2023-02-22T12:27:35;17.55;;;13.20;;
77571;SDS011;67214;47.454;18.966;2023-02-22T12:30:09;16.82;;;12.93;;
77571;SDS011;67214;47.454;18.966;2023-02-22T12:32:38;17.00;;;13.03;;
77571;SDS011;67214;47.454;18.966;2023-02-22T12:35:11;20.68;;;12.90;;
77571;SDS011;67214;47.454;18.966;2023-02-22T12:37:51;16.73;;;12.88;;
77571;SDS011;67214;47.454;18.966;2023-02-22T12:40:45;18.27;;;12.20;;
77571;SDS011;67214;47.454;18.966;2023-02-22T12:43:18;13.93;;;11.68;;
77571;SDS011;67214;47.454;18.966;2023-02-22T12:48:56;15.80;;;12.82;;
77571;SDS011;67214;47.454;18.966;2023-02-22T13:00:18;15.38;;;12.50;;
77571;SDS011;67214;47.454;18.966;2023-02-22T13:05:42;14.65;;;12.05;;
77571;SDS011;67214;47.454;18.966;2023-02-22T13:08:22;19.02;;;12.37;;
77571;SDS011;67214;47.454;18.966;2023-02-22T13:11:00;14.75;;;11.88;;
77571;SDS011;67214;47.454;18.966;2023-02-22T13:13:50;19.07;;;13.10;;
77571;SDS011;67214;47.454;18.966;2023-02-22T13:16:21;20.37;;;13.25;;
77571;SDS011;67214;47.454;18.966;2023-02-22T13:21:56;19.80;;;12.43;;
77571;SDS011;67214;47.454;18.966;2023-02-22T13:24:25;17.80;;;12.33;;
77571;SDS011;67214;47.454;18.966;2023-02-22T13:27:03;17.85;;;12.40;;
77571;SDS011;67214;47.454;18.966;2023-02-22T13:29:38;20.20;;;12.35;;
77571;SDS011;67214;47.454;18.966;2023-02-22T13:35:00;16.57;;;12.47;;
77571;SDS011;67214;47.454;18.966;2023-02-22T13:37:43;16.00;;;11.83;;
77571;SDS011;67214;47.454;18.966;2023-02-22T13:40:24;15.50;;;11.70;;
77571;SDS011;67214;47.454;18.966;2023-02-22T13:43:03;14.10;;;12.00;;
77571;SDS011;67214;47.454;18.966;2023-02-22T13:53:33;23.65;;;14.00;;
77571;SDS011;67214;47.454;18.966;2023-02-22T13:56:10;19.32;;;12.90;;
77571;SDS011;67214;47.454;18.966;2023-02-22T13:58:51;20.45;;;13.75;;
77571;SDS011;67214;47.454;18.966;2023-02-22T14:04:52;43.50;;;28.85;;
77571;SDS011;67214;47.454;18.966;2023-02-22T14:06:45;16.05;;;11.80;;
77571;SDS011;67214;47.454;18.966;2023-02-22T14:09:39;10.30;;;8.43;;
77571;SDS011;67214;47.454;18.966;2023-02-22T14:11:45;12.75;;;9.08;;
77571;SDS011;67214;47.454;18.966;2023-02-22T14:14:14;21.55;;;15.25;;
77571;SDS011;67214;47.454;18.966;2023-02-22T14:16:43;50.70;;;32.80;;
77571;SDS011;67214;47.454;18.966;2023-02-22T14:21:59;22.45;;;14.50;;
77571;SDS011;67214;47.454;18.966;2023-02-22T14:24:30;36.63;;;26.82;;
77571;SDS011;67214;47.454;18.966;2023-02-22T14:27:07;23.18;;;17.30;;
77571;SDS011;67214;47.454;18.966;2023-02-22T14:29:36;18.98;;;11.70;;
77571;SDS011;67214;47.454;18.966;2023-02-22T14:32:06;19.12;;;11.50;;
77571;SDS011;67214;47.454;18.966;2023-02-22T14:34:48;15.45;;;11.18;;
77571;SDS011;67214;47.454;18.966;2023-02-22T14:37:17;8.28;;;6.25;;
77571;SDS011;67214;47.454;18.966;2023-02-22T14:42:35;14.13;;;6.92;;
77571;SDS011;67214;47.454;18.966;2023-02-22T14:45:12;16.57;;;10.20;;
77571;SDS011;67214;47.454;18.966;2023-02-22T14:53:28;8.85;;;6.28;;
77571;SDS011;67214;47.454;18.966;2023-02-22T15:01:33;8.88;;;6.30;;
77571;SDS011;67214;47.454;18.966;2023-02-22T15:04:25;5.83;;;4.83;;
77571;SDS011;67214;47.454;18.966;2023-02-22T15:06:45;6.40;;;5.20;;
77571;SDS011;67214;47.454;18.966;2023-02-22T15:09:15;5.45;;;4.00;;
77571;SDS011;67214;47.454;18.966;2023-02-22T15:14:21;7.15;;;4.60;;
77571;SDS011;67214;47.454;18.966;2023-02-22T15:16:56;10.75;;;5.17;;
77571;SDS011;67214;47.454;18.966;2023-02-22T15:19:23;9.65;;;6.83;;
77571;SDS011;67214;47.454;18.966;2023-02-22T15:21:51;5.90;;;4.42;;
77571;SDS011;67214;47.454;18.966;2023-02-22T15:24:22;6.47;;;3.75;;
77571;SDS011;67214;47.454;18.966;2023-02-22T15:26:54;4.45;;;3.52;;
77571;SDS011;67214;47.454;18.966;2023-02-22T15:29:24;6.30;;;5.10;;
77571;SDS011;67214;47.454;18.966;2023-02-22T15:31:54;5.42;;;4.35;;
77571;SDS011;67214;47.454;18.966;2023-02-22T15:34:26;6.25;;;4.50;;
77571;SDS011;67214;47.454;18.966;2023-02-22T15:36:52;5.80;;;4.65;;
77571;SDS011;67214;47.454;18.966;2023-02-22T15:39:29;9.15;;;6.45;;
77571;SDS011;67214;47.454;18.966;2023-02-22T15:42:09;11.35;;;7.33;;
77571;SDS011;67214;47.454;18.966;2023-02-22T15:44:42;10.50;;;5.37;;
77571;SDS011;67214;47.454;18.966;2023-02-22T15:47:17;6.60;;;4.37;;
77571;SDS011;67214;47.454;18.966;2023-02-22T15:52:48;10.43;;;8.03;;
77571;SDS011;67214;47.454;18.966;2023-02-22T15:55:33;9.83;;;7.63;;
77571;SDS011;67214;47.454;18.966;2023-02-22T15:58:10;6.15;;;5.10;;
77571;SDS011;67214;47.454;18.966;2023-02-22T16:00:40;7.08;;;4.70;;
77571;SDS011;67214;47.454;18.966;2023-02-22T16:03:20;7.30;;;5.15;;
77571;SDS011;67214;47.454;18.966;2023-02-22T16:05:43;15.05;;;9.55;;
77571;SDS011;67214;47.454;18.966;2023-02-22T16:08:14;12.45;;;7.55;;
77571;SDS011;67214;47.454;18.966;2023-02-22T16:11:06;22.65;;;12.53;;
77571;SDS011;67214;47.454;18.966;2023-02-22T16:13:38;15.88;;;10.03;;
77571;SDS011;67214;47.454;18.966;2023-02-22T16:18:47;22.15;;;11.68;;
77571;SDS011;67214;47.454;18.966;2023-02-22T16:21:17;20.85;;;12.80;;
77571;SDS011;67214;47.454;18.966;2023-02-22T16:23:48;23.65;;;11.60;;
77571;SDS011;67214;47.454;18.966;2023-02-22T16:26:27;19.70;;;10.25;;
77571;SDS011;67214;47.454;18.966;2023-02-22T16:28:58;18.10;;;9.40;;
77571;SDS011;67214;47.454;18.966;2023-02-22T16:31:33;18.23;;;10.48;;
77571;SDS011;67214;47.454;18.966;2023-02-22T16:34:03;16.62;;;10.63;;
77571;SDS011;67214;47.454;18.966;2023-02-22T16:36:36;22.13;;;11.70;;
77571;SDS011;67214;47.454;18.966;2023-02-22T16:39:24;22.27;;;12.40;;
77571;SDS011;67214;47.454;18.966;2023-02-22T16:41:55;26.25;;;12.23;;
77571;SDS011;67214;47.454;18.966;2023-02-22T16:44:24;23.83;;;12.73;;
77571;SDS011;67214;47.454;18.966;2023-02-22T16:46:53;23.38;;;14.10;;
77571;SDS011;67214;47.454;18.966;2023-02-22T16:49:22;20.23;;;12.78;;
77571;SDS011;67214;47.454;18.966;2023-02-22T16:51:52;22.25;;;12.82;;
77571;SDS011;67214;47.454;18.966;2023-02-22T16:54:27;24.80;;;13.55;;
77571;SDS011;67214;47.454;18.966;2023-02-22T16:56:58;21.05;;;14.07;;